Sedgwick Reserve, California Weather observations

Data are for 10 minute period ending at time listed.
 Day   Time   Solar   Ave.   Ave.  Ave.  Vector  Max.   Baro.   Total    
  of    of     Rad.   Air    Rel.  Wind   Wind   Wind  Press.  Precip.   
Year   Day            Temp.  Hum.  Speed  Dir.   Gust                    
2014   (PST)  Kw/m2    F      %     mph   deg.    mph    mb.     in.     
-------------------------------------------------------------------------
 326   19:10   0.00   59.5    88   10.0   287    17.0   974.1    0.00 
 326   19:20   0.00   59.3    89   10.8   281    16.4   974.3    0.00 
 326   19:30   0.00   59.1    89   11.7   278    18.5   974.3    0.00 
 326   19:40   0.00   58.9    89   11.9   282    19.5   974.3    0.00 
 326   19:50   0.00   58.7    90   10.9   281    17.1   974.3    0.00 
 326   20:00   0.00   58.4    90    9.4   278    15.3   974.3    0.00 
 326   20:10   0.00   58.6    90   10.5   281    16.0   974.3    0.00 
 326   20:20   0.00   58.7    88   11.4   286    15.9   974.3    0.00 
 326   20:30   0.00   58.8    87   10.0   281    14.4   974.3    0.00 
 326   20:40   0.00   58.7    86   10.2   284    15.6   974.4    0.00 
 326   20:50   0.00   58.9    86   11.0   288    16.5   974.5    0.00 
 326   21:00   0.00   59.1    85   10.8   289    15.6   974.6    0.00 
 326   21:10   0.00   59.2    84   13.4   291    17.4   974.7    0.00 
 326   21:20   0.00   59.4    83   13.5   292    22.0   974.7    0.00 
 326   21:30   0.00   59.5    82   13.8   294    21.2   974.8    0.00 
 326   21:40   0.00   59.2    83   11.9   290    17.1   974.9    0.00 
 326   21:50   0.00   58.8    84   12.2   295    17.5   974.9    0.00 
 326   22:00   0.00   58.5    85   10.4   297    15.9   974.9    0.00 
 326   22:10   0.00   58.5    84   10.2   299    15.5   974.9    0.00 
 326   22:20   0.00   58.2    84    9.8   293    14.2   974.9    0.00 
 326   22:30   0.00   58.0    84    8.5   291    14.8   975.0    0.00 
 326   22:40   0.00   57.7    85   10.0   294    14.2   975.0    0.00 
 326   22:50   0.00   57.7    83    6.8   315    13.2   975.0    0.00 
 326   23:00   0.00   57.7    81    5.8   306    11.3   975.1    0.00 
 326   23:10   0.00   57.3    81    5.5   290    10.9   975.2    0.00 
 326   23:20   0.00   57.3    80    5.6   310     9.4   975.2    0.00 
 326   23:30   0.00   57.7    76    7.1   319    12.5   975.2    0.00 
 326   23:40   0.00   58.6    72    6.2   314    13.2   975.3    0.00 
 326   23:50   0.00   58.9    70   11.8   299    16.4   975.3    0.00 
 327    0:00   0.00   59.6    65   11.1   309    15.9   975.4    0.00 
 327    0:10   0.00   59.9    63   11.6   309    19.4   975.4    0.00 
 327    0:20   0.00   60.2    59   10.2   312    18.0   975.4    0.00 
 327    0:30   0.00   60.1    59   10.7   310    15.3   975.4    0.00 
 327    0:40   0.00   60.0    59    9.9   312    15.2   975.5    0.00 
 327    0:50   0.00   60.8    55   11.8   307    16.9   975.5    0.00 
 327    1:00   0.00   60.9    54    9.2   311    17.0   975.6    0.00 
 327    1:10   0.00   60.9    52    7.6   308    13.3   975.5    0.00 
 327    1:20   0.00   60.9    51    5.6   312     8.7   975.4    0.00 
 327    1:30   0.00   60.3    53    7.1   291    12.1   975.5    0.00 
 327    1:40   0.00   59.9    53    2.7   272     4.9   975.6    0.00 
 327    1:50   0.00   58.4    56    3.6   265     5.0   975.6    0.00 
 327    2:00   0.00   57.7    57    4.0   269     6.9   975.5    0.00 
 327    2:10   0.00   58.7    54    5.1   288    10.9   975.4    0.00 
 327    2:20   0.00   59.5    52    3.3   266     6.7   975.4    0.00 
 327    2:30   0.00   59.4    51    7.6   322    19.0   975.5    0.00 
 327    2:40   0.00   61.1    48    8.0   303    21.3   975.6    0.00 
 327    2:50   0.00   59.8    51    8.9   306    14.5   975.6    0.00 
 327    3:00   0.00   59.8    51    7.1   325    18.9   975.6    0.00 
 327    3:10   0.00   60.1    51    8.4   327    16.7   975.7    0.00 
 327    3:20   0.00   59.7    52    6.6   327    11.6   975.8    0.00 
 327    3:30   0.00   59.9    52    8.8   349    17.5   975.8    0.00 
 327    3:40   0.00   59.3    53    4.7   343    12.6   975.8    0.00 
 327    3:50   0.00   58.8    54    5.2   314    11.0   975.7    0.00 
 327    4:00   0.00   59.1    53    6.9   332    13.6   975.7    0.00 
 327    4:10   0.00   59.8    52    7.5   340    15.5   975.9    0.00 
 327    4:20   0.00   59.7    52    5.9   358    12.1   976.0    0.00 
 327    4:30   0.00   59.1    53    7.3     8    13.2   976.1    0.00 
 327    4:40   0.00   59.1    53    5.7   340    13.1   976.1    0.00 
 327    4:50   0.00   59.3    52    5.8   340    11.8   976.3    0.00 
 327    5:00   0.00   58.6    54    6.6   330    12.3   976.2    0.00 
 327    5:10   0.00   59.1    52    5.7   334    12.1   976.3    0.00 
 327    5:20   0.00   59.3    52    6.0   318    10.1   976.5    0.00 
 327    5:30   0.00   59.0    53    5.9   318     8.8   976.8    0.00 
 327    5:40   0.00   58.7    52    6.8   318    10.6   977.0    0.00 
 327    5:50   0.00   59.2    50    6.1   326    11.5   977.3    0.00 
 327    6:00   0.00   59.0    47    5.3   327     9.9   977.5    0.00 
 327    6:10   0.00   59.3    44    4.9   304     8.7   977.7    0.00 
 327    6:20   0.00   58.9    44    4.8   316     8.4   977.7    0.00 
 327    6:30   0.00   58.8    41    5.3   336     9.9   977.7    0.00 
 327    6:40   0.00   59.3    40    4.7    12    10.7   977.9    0.00 
 327    6:50   0.00   59.3    40    3.1   321     7.7   978.0    0.00 
 327    7:00   0.01   59.4    39    2.0     5     5.3   978.0    0.00 
 327    7:10   0.02   58.1    42    3.1   237     6.6   978.2    0.00 
 327    7:20   0.03   58.2    40    4.5   292     9.3   978.5    0.00 
 327    7:30   0.05   59.0    37    6.5   336    19.9   978.7    0.00 
 327    7:40   0.13   60.7    33    8.1   341    14.6   978.9    0.00 
 327    7:50   0.10   61.4    31    6.1   343    12.3   978.8    0.00 
 327    8:00   0.14   61.2    30    5.9   348    11.8   978.9    0.00 
 327    8:10   0.15   62.2    28    7.8   353    24.2   979.2    0.00 
 327    8:20   0.16   62.2    27    6.4   350    14.7   979.4    0.00 
 327    8:30   0.16   63.1    24    5.3   352    13.5   979.4    0.00 
 327    8:40   0.24   62.5    36    5.0    97    10.4   979.4    0.00 
 327    8:50   0.24   60.4    50    3.4   139     6.4   979.5    0.00 
 327    9:00   0.21   60.4    48    3.3   237     7.7   979.6    0.00 
 327    9:10   0.30   62.3    40    3.3   164     6.9   979.5    0.00 
 327    9:20   0.39   64.6    36    2.3   141     5.9   979.5    0.00 
 327    9:30   0.41   65.8    27    5.1   196    11.3   979.7    0.00 
 327    9:40   0.42   66.6    26    3.2   170     7.4   979.8    0.00 
 327    9:50   0.44   68.1    19    3.1   356     7.2   980.1    0.00 
 327   10:00   0.45   68.6    21    3.6   154     8.6   980.2    0.00 
 327   10:10   0.49   68.5    18    5.1    17    11.1   980.3    0.00 
 327   10:20   0.50   69.1    18    5.8     3    12.7   980.4    0.00 
 327   10:30   0.51   67.8    28    6.2   188    12.2   980.5    0.00 
 327   10:40   0.53   68.6    20    8.2    46    22.1   980.4    0.00 
 327   10:50   0.51   68.7    20    8.1    46    18.7   980.4    0.00 
 327   11:00   0.48   69.5    18    6.6    48    12.8   980.3    0.00 
 327   11:10   0.56   70.1    16    6.6    47    13.4   980.3    0.00 
 327   11:20   0.57   69.9    16    8.3    42    15.9   980.0    0.00 
 327   11:30   0.57   70.4    15    9.3    37    16.7   979.9    0.00 
 327   11:40   0.58   71.0    15    7.7    41    18.0   979.8    0.00 
 327   11:50   0.58   71.8    14    8.3    28    16.2   979.5    0.00 
 327   12:00   0.57   72.2    13    6.9    28    16.3   979.3    0.00 
 327   12:10   0.57   73.2    14    4.0    37     7.4   979.2    0.00 
 327   12:20   0.57   73.9    13    3.8   157     7.7   979.1    0.00 
 327   12:30   0.57   74.7    12    5.7    76    13.8   979.1    0.00 
 327   12:40   0.56   74.4    12    8.0    51    15.6   979.1    0.00 
 327   12:50   0.55   74.1    11    5.3    46    12.1   979.0    0.00 
 327   13:00   0.55   74.7    12    7.3    67    13.4   978.9    0.00 
 327   13:10   0.52   74.5    11    5.5    50     9.4   978.8    0.00 
 327   13:20   0.46   74.3    11    5.8    17    11.2   978.6    0.00 
 327   13:30   0.56   75.0    11    6.0    51    10.0   978.4    0.00 
 327   13:40   0.57   74.9    11    7.9    34    13.0   978.3    0.00 
 327   13:50   0.51   74.3    11    6.8   354    11.6   978.3    0.00 
 327   14:00   0.47   74.9    12    5.8     3    12.3   978.2    0.00 
 327   14:10   0.42   75.0    13    6.4   356    11.5   978.2    0.00 
 327   14:20   0.41   74.6    14    5.7    21    11.0   978.2    0.00 
 327   14:30   0.39   74.7    13    6.1     8    10.7   978.2    0.00 
 327   14:40   0.33   74.2    14    5.3    44     9.3   978.2    0.00 
 327   14:50   0.32   73.9    14    4.1    14     6.8   978.1    0.00 
 327   15:00   0.29   73.8    14    3.8    38     9.7   978.1    0.00 
 327   15:10   0.21   73.1    15    6.6    12    11.0   978.1    0.00 
 327   15:20   0.26   72.1    16    5.9     5    10.7   978.1    0.00 
 327   15:30   0.21   72.1    16    5.9     5    10.5   978.2    0.00 
 327   15:40   0.12   71.2    17    7.0     7    15.0   978.3    0.00 
 327   15:50   0.15   70.6    18    7.4    24    15.9   978.3    0.00 
 327   16:00   0.14   70.1    19   10.9    23    18.9   978.3    0.00 
 327   16:10   0.13   69.6    20   12.1    23    19.3   978.2    0.00 
 327   16:20   0.10   69.3    19   14.9    20    24.3   978.1    0.00 
 327   16:30   0.07   68.8    19   10.6    32    18.2   978.1    0.00 
 327   16:40   0.03   68.2    19   11.5    35    20.4   978.2    0.00 
 327   16:50   0.01   67.9    18    7.8    39    15.3   978.2    0.00 
 327   17:00   0.00   67.5    18   10.8    29    19.2   978.2    0.00 
 327   17:10   0.00   67.3    17    8.4    37    17.3   978.0    0.00 
 327   17:20   0.00   67.0    17    7.0    52    17.2   978.1    0.00 
 327   17:30   0.00   67.3    15    6.9    41    15.3   978.2    0.00 
 327   17:40   0.00   66.3    16    4.1    60    12.3   978.3    0.00 
 327   17:50   0.00   64.1    19    4.1    71    10.8   978.2    0.00 
 327   18:00   0.00   65.7    14    6.1    36    18.3   978.3    0.00 
 327   18:10   0.00   63.9    20    3.5    96     8.4   978.3    0.00 
 327   18:20   0.00   64.0    19    3.4     2    11.1   978.3    0.00 
 327   18:30   0.00   61.1    22    1.7   270     3.4   978.4    0.00 
 327   18:40   0.00   59.8    24    2.5    78     4.5   978.4    0.00 
 327   18:50   0.00   58.5    25    2.4   250     5.3   978.6    0.00 
 327   19:00   0.00   58.6    24    4.1   353     8.8   978.7    0.00 

Return to Sedgwick Reserve graphs page.


Western Regional Climate Center,wrcc@dri.edu